Terminal Aerodrome Forecast
Issued by NWS

Home | Current Version | Previous Version | Text Only | Print | Product List | Glossary On
Versions: 1 2 3 4 5 6 7 8 9 10 11 12 13 14 15
000
FTUS41 KAKQ 262327
TAFPHF
TAF
KPHF 262327Z 2700/2724 07009KT P6SM SCT100
     FM270300 15005KT P6SM SCT100 SCT250
     FM270700 18006KT P6SM BKN090
     FM271700 21010KT P6SM BKN050
     FM272000 21012KT P6SM SCT050 BKN250=

USA.gov is the U.S. government's official web portal to all federal, state and local government web resources and services.